Malton, Canada
Current Conditions -  °F | °C
As of 11:00 AM on Monday 22 Dec 2014 (Local Time) from CYYZ Reporting Station
Overcast Overcast  
Wind Chill: 24°   Ceiling: 1800
Heat Index: 32°   Visibility: 15mi
Dew Point: 25°   Wind: 10mph
Humidity: 75%   Direction: 120°ESE
Pressure: 30.18"   Gusts: NA
Location:  43.72°N, 79.64°W
Report Text: CYYZ 221600Z 12009KT 15SM OVC018 00/M04 A3018 RMK SC8 SLP226
Loading
Personal Weather Stations






























Interactive Weather Map New forecast layout! Learn more

10-Day Weather Forecast

Advertisements
Track Severe Weather on mobile